Time;durP1;ratioP1;P1;durP2;ratioP2;P2;SDS_P1;SDS_P2;PMS_P1;PMS_P2;Temp;Humidity;BMP_temperature;BMP_pressure;BME280_temperature;BME280_humidity;BME280_pressure;Samples;Min_cycle;Max_cycle;Signal;HPM_P1;HPM_P2
2023/08/23 00:02:25;;;;;;;9.57;6.90;;;15.90;99.90;;;;;;5116180;27;20112;-70
2023/08/23 00:04:54;;;;;;;10.95;7.22;;;15.90;99.90;;;;;;5094972;28;20059;-70
2023/08/23 00:07:20;;;;;;;9.65;6.95;;;15.90;99.90;;;;;;5078479;28;20040;-70
2023/08/23 00:09:47;;;;;;;12.82;8.50;;;15.90;99.90;;;;;;5078709;27;20527;-70
2023/08/23 00:12:15;;;;;;;12.75;7.60;;;15.90;99.90;;;;;;5096326;27;20407;-70
2023/08/23 00:14:42;;;;;;;12.00;7.25;;;15.80;99.90;;;;;;5078989;27;20052;-71
2023/08/23 00:17:09;;;;;;;10.70;8.02;;;15.80;99.90;;;;;;5095412;27;20048;-71
2023/08/23 00:19:35;;;;;;;10.20;7.82;;;15.80;99.90;;;;;;5096443;27;20048;-71
2023/08/23 00:22:04;;;;;;;13.35;9.00;;;15.80;99.90;;;;;;5087764;27;20047;-71
2023/08/23 00:24:31;;;;;;;10.70;7.93;;;15.80;99.90;;;;;;5133130;27;20047;-70
2023/08/23 00:26:58;;;;;;;11.30;8.10;;;15.70;99.90;;;;;;5116105;27;20050;-70
2023/08/23 00:29:25;;;;;;;19.52;8.27;;;15.70;99.90;;;;;;5134129;27;20039;-69
2023/08/23 00:31:51;;;;;;;15.32;8.73;;;15.70;99.90;;;;;;5133941;27;20043;-69
2023/08/23 00:34:18;;;;;;;11.20;8.88;;;15.50;99.90;;;;;;5134213;27;20422;-69
2023/08/23 00:36:46;;;;;;;14.77;9.55;;;15.60;99.90;;;;;;5115796;27;20123;-69
2023/08/23 00:39:14;;;;;;;11.13;8.35;;;15.60;99.90;;;;;;5114956;27;20050;-70
2023/08/23 00:41:43;;;;;;;11.90;8.27;;;15.50;99.90;;;;;;5115835;27;20046;-70
2023/08/23 00:44:09;;;;;;;10.45;7.55;;;15.50;99.90;;;;;;5114862;27;20051;-70
2023/08/23 00:46:36;;;;;;;10.02;7.32;;;15.40;99.90;;;;;;5102509;27;20109;-70
2023/08/23 00:49:04;;;;;;;10.18;7.95;;;15.40;99.90;;;;;;5078574;27;20400;-70
2023/08/23 00:51:31;;;;;;;10.93;7.97;;;15.30;99.90;;;;;;5076657;28;20381;-69
2023/08/23 00:53:58;;;;;;;13.15;9.35;;;15.30;99.90;;;;;;5078035;27;20097;-69
2023/08/23 00:56:27;;;;;;;11.85;8.38;;;15.30;99.90;;;;;;5078552;28;20102;-69
2023/08/23 00:58:54;;;;;;;9.68;7.95;;;15.30;99.90;;;;;;5076565;27;20055;-70
2023/08/23 01:01:21;;;;;;;11.07;8.02;;;15.30;99.90;;;;;;5077894;28;20052;-69
2023/08/23 01:03:50;;;;;;;8.52;7.35;;;15.30;99.90;;;;;;5110877;27;20402;-69
2023/08/23 01:06:27;;;;;;;9.80;7.55;;;15.30;99.90;;;;;;5114767;27;20047;-70
2023/08/23 01:09:04;;;;;;;12.68;8.63;;;15.30;99.90;;;;;;5095655;28;20040;-70
2023/08/23 01:11:38;;;;;;;10.93;7.95;;;15.30;99.90;;;;;;5079126;27;20052;-69
2023/08/23 01:14:06;;;;;;;12.75;8.68;;;15.30;99.90;;;;;;5094611;27;20048;-70
2023/08/23 01:16:35;;;;;;;15.32;8.98;;;15.30;99.90;;;;;;5105361;27;20047;-69
2023/08/23 01:19:10;;;;;;;12.32;9.45;;;15.30;99.90;;;;;;5132854;27;20500;-70
2023/08/23 01:21:39;;;;;;;12.88;8.40;;;15.20;99.90;;;;;;5094755;28;20450;-70
2023/08/23 01:24:09;;;;;;;13.20;8.80;;;15.20;99.90;;;;;;5113852;28;20050;-70
2023/08/23 01:26:37;;;;;;;11.93;8.95;;;15.20;99.90;;;;;;5094870;28;20046;-71
2023/08/23 01:29:04;;;;;;;15.05;9.18;;;15.20;99.90;;;;;;5095666;28;20135;-71
2023/08/23 01:31:34;;;;;;;16.05;8.82;;;15.20;99.90;;;;;;5076661;28;20052;-70
2023/08/23 01:34:10;;;;;;;13.43;9.00;;;15.20;99.90;;;;;;5076834;27;20059;-69
2023/08/23 01:36:41;;;;;;;15.90;9.70;;;15.20;99.90;;;;;;5105035;27;20130;-70
2023/08/23 01:39:10;;;;;;;11.43;9.25;;;15.20;99.90;;;;;;5100610;27;20091;-70
2023/08/23 01:41:38;;;;;;;11.93;8.52;;;15.20;99.90;;;;;;5132572;27;20091;-69
2023/08/23 01:44:05;;;;;;;13.10;8.85;;;15.20;99.90;;;;;;5132468;27;20054;-70
2023/08/23 01:46:35;;;;;;;12.68;9.38;;;15.20;99.90;;;;;;5114749;27;20145;-70
2023/08/23 01:49:02;;;;;;;12.60;8.88;;;15.20;99.90;;;;;;5113820;27;20084;-69
2023/08/23 01:51:29;;;;;;;15.10;9.55;;;15.10;99.90;;;;;;5132371;27;20129;-70
2023/08/23 01:53:56;;;;;;;13.35;8.98;;;15.10;99.90;;;;;;5132401;27;20054;-70
2023/08/23 01:56:24;;;;;;;13.77;8.88;;;15.10;99.90;;;;;;5093276;27;20055;-71
2023/08/23 01:58:51;;;;;;;21.42;10.90;;;15.10;99.90;;;;;;5077289;28;20036;-71
2023/08/23 02:01:18;;;;;;;12.82;9.23;;;15.10;99.90;;;;;;5076106;28;20064;-71
2023/08/23 02:03:45;;;;;;;15.57;9.80;;;15.10;99.90;;;;;;5093602;28;20089;-71
2023/08/23 02:06:12;;;;;;;13.57;8.98;;;15.10;99.90;;;;;;5075625;28;20093;-71
2023/08/23 02:08:39;;;;;;;15.93;8.55;;;15.10;99.90;;;;;;5093411;28;20100;-70
2023/08/23 02:11:06;;;;;;;13.60;8.10;;;15.10;99.90;;;;;;5094260;28;20048;-70
2023/08/23 02:13:34;;;;;;;11.32;8.07;;;15.10;99.90;;;;;;5076108;28;20411;-70
2023/08/23 02:16:01;;;;;;;11.32;8.05;;;15.00;99.90;;;;;;5076873;28;20105;-70
2023/08/23 02:18:28;;;;;;;10.85;7.63;;;15.00;99.90;;;;;;5075858;28;20040;-71
2023/08/23 02:20:57;;;;;;;11.07;7.45;;;15.00;99.90;;;;;;5093866;27;20048;-70
2023/08/23 02:23:24;;;;;;;11.13;7.47;;;15.00;99.90;;;;;;5095070;28;20496;-71
2023/08/23 02:25:52;;;;;;;10.48;7.20;;;14.90;99.90;;;;;;5076461;28;20715;-70
2023/08/23 02:28:19;;;;;;;11.55;7.22;;;14.90;99.90;;;;;;5129535;27;20109;-71
2023/08/23 02:30:47;;;;;;;10.85;7.57;;;14.90;99.90;;;;;;5131092;27;20047;-71
2023/08/23 02:33:14;;;;;;;11.05;7.57;;;14.90;99.90;;;;;;5132391;27;20058;-72
2023/08/23 02:35:44;;;;;;;11.07;7.10;;;14.90;99.90;;;;;;5113307;27;20145;-71
2023/08/23 02:38:12;;;;;;;8.93;6.43;;;14.80;99.90;;;;;;5080150;28;20044;-72
2023/08/23 02:40:42;;;;;;;11.65;6.43;;;14.80;99.90;;;;;;5076893;28;20127;-71
2023/08/23 02:43:08;;;;;;;8.32;6.05;;;14.80;99.90;;;;;;5095586;28;20051;-71
2023/08/23 02:45:39;;;;;;;8.05;6.82;;;14.80;99.90;;;;;;5075278;28;20052;-72
2023/08/23 02:48:08;;;;;;;10.40;6.38;;;14.80;99.90;;;;;;5093199;28;20052;-72
2023/08/23 02:50:35;;;;;;;10.70;6.55;;;14.70;99.90;;;;;;5080269;28;20039;-72
2023/08/23 02:53:02;;;;;;;51.75;11.30;;;14.60;99.90;;;;;;5092897;27;20055;-72
2023/08/23 02:55:29;;;;;;;65.25;12.52;;;14.60;99.90;;;;;;5076833;28;20052;-72
2023/08/23 02:57:56;;;;;;;95.00;13.70;;;14.60;99.90;;;;;;5074934;28;20043;-72
2023/08/23 03:00:23;;;;;;;160.90;16.58;;;14.60;99.90;;;;;;5093549;28;20047;-72
2023/08/23 03:02:49;;;;;;;159.73;16.90;;;14.50;99.90;;;;;;5094237;28;20381;-72
2023/08/23 03:05:18;;;;;;;212.98;17.95;;;14.50;99.90;;;;;;5093609;28;20040;-72
2023/08/23 03:07:45;;;;;;;88.85;13.73;;;14.40;99.90;;;;;;5093224;28;20044;-72
2023/08/23 03:10:13;;;;;;;102.13;11.93;;;14.40;99.90;;;;;;5105438;28;20051;-71
2023/08/23 03:12:40;;;;;;;30.13;7.45;;;14.40;99.90;;;;;;5123137;28;20050;-72
2023/08/23 03:15:08;;;;;;;51.28;8.75;;;14.40;99.90;;;;;;5121756;28;20051;-72
2023/08/23 03:17:35;;;;;;;42.50;7.75;;;14.40;99.90;;;;;;5133112;27;20107;-72
2023/08/23 03:20:02;;;;;;;41.65;7.70;;;14.40;99.90;;;;;;5095121;28;20093;-71
2023/08/23 03:22:30;;;;;;;26.80;7.35;;;14.40;99.90;;;;;;5097895;27;20048;-71
2023/08/23 03:24:57;;;;;;;12.27;5.57;;;14.40;99.90;;;;;;5080440;28;20153;-71
2023/08/23 03:27:25;;;;;;;7.75;5.57;;;14.40;99.90;;;;;;5096677;27;20444;-71
2023/08/23 03:29:52;;;;;;;7.22;5.32;;;14.40;99.90;;;;;;5096680;27;20048;-72
2023/08/23 03:32:20;;;;;;;7.28;5.60;;;14.40;99.90;;;;;;5113031;27;20047;-71
2023/08/23 03:34:47;;;;;;;7.57;6.28;;;14.40;99.90;;;;;;5116053;27;20448;-72
2023/08/23 03:37:14;;;;;;;8.20;6.05;;;14.40;99.90;;;;;;5101010;28;20051;-72
2023/08/23 03:39:42;;;;;;;7.40;6.03;;;14.40;99.90;;;;;;5097232;27;20044;-72
2023/08/23 03:42:09;;;;;;;8.57;5.38;;;14.40;99.90;;;;;;5078567;28;20096;-72
2023/08/23 03:44:36;;;;;;;5.35;4.28;;;14.50;99.90;;;;;;5109218;27;20063;-72
2023/08/23 03:47:03;;;;;;;8.52;6.53;;;15.20;99.90;;;;;;5091231;28;20048;-72
2023/08/23 03:49:30;;;;;;;8.15;6.25;;;15.20;99.90;;;;;;5112898;27;20048;-73
2023/08/23 03:51:57;;;;;;;8.40;5.65;;;15.10;99.90;;;;;;5108937;27;20043;-72
2023/08/23 03:54:24;;;;;;;7.57;5.88;;;15.20;99.90;;;;;;5095728;28;20685;-72
2023/08/23 03:56:52;;;;;;;9.13;6.05;;;15.20;99.90;;;;;;5092302;28;20063;-73
2023/08/23 03:59:19;;;;;;;7.75;4.72;;;15.50;99.90;;;;;;5095822;28;21220;-72
2023/08/23 04:01:46;;;;;;;11.20;6.00;;;15.90;99.90;;;;;;5087517;27;20055;-72
2023/08/23 04:04:14;;;;;;;13.90;7.70;;;15.70;99.90;;;;;;5090503;27;20050;-73
2023/08/23 04:06:41;;;;;;;7.88;5.63;;;15.60;99.90;;;;;;5091069;28;20473;-72
2023/08/23 04:09:08;;;;;;;16.00;8.07;;;15.70;99.90;;;;;;5113773;28;20039;-72
2023/08/23 04:11:35;;;;;;;7.65;5.35;;;15.60;99.90;;;;;;5093706;28;20112;-72
2023/08/23 04:14:03;;;;;;;8.05;6.05;;;15.80;99.90;;;;;;5091696;28;20089;-72
2023/08/23 04:16:30;;;;;;;10.40;6.63;;;15.90;99.90;;;;;;5089858;28;20678;-72
2023/08/23 04:18:57;;;;;;;11.70;6.80;;;15.90;99.90;;;;;;5094251;28;20445;-72
2023/08/23 04:21:24;;;;;;;8.00;5.78;;;15.70;99.90;;;;;;5106270;28;20047;-72
2023/08/23 04:23:52;;;;;;;13.93;5.72;;;15.60;99.90;;;;;;5084589;28;20427;-73
2023/08/23 04:26:19;;;;;;;15.85;6.53;;;15.70;99.90;;;;;;5093228;28;20096;-73
2023/08/23 04:28:46;;;;;;;8.77;6.72;;;15.60;99.90;;;;;;5083225;28;20105;-72
2023/08/23 04:31:14;;;;;;;9.32;6.10;;;15.70;99.90;;;;;;5093616;28;20052;-73
2023/08/23 04:33:43;;;;;;;8.48;5.53;;;15.60;99.90;;;;;;5089847;28;20047;-72
2023/08/23 04:36:10;;;;;;;12.95;6.63;;;15.90;99.90;;;;;;5094227;28;20055;-73
2023/08/23 04:38:37;;;;;;;13.85;7.65;;;15.90;99.90;;;;;;5092149;28;20564;-73
2023/08/23 04:41:05;;;;;;;11.93;7.00;;;15.70;99.90;;;;;;5088633;28;20499;-73
2023/08/23 04:43:32;;;;;;;11.85;8.32;;;15.70;99.90;;;;;;5109762;27;20050;-73
2023/08/23 04:46:00;;;;;;;9.93;7.20;;;15.60;99.90;;;;;;5093299;28;20055;-71
2023/08/23 04:48:28;;;;;;;11.80;7.93;;;15.40;99.90;;;;;;5089376;28;20044;-71
2023/08/23 04:50:58;;;;;;;10.25;7.40;;;15.50;99.90;;;;;;5109118;27;20063;-72
2023/08/23 04:53:25;;;;;;;26.73;12.02;;;15.50;99.90;;;;;;5091065;28;20380;-72
2023/08/23 04:55:56;;;;;;;26.73;10.57;;;15.50;99.90;;;;;;5091153;28;20128;-72
2023/08/23 04:58:27;;;;;;;10.65;7.18;;;15.50;99.90;;;;;;5090156;28;20510;-73
2023/08/23 05:00:56;;;;;;;15.65;10.32;;;15.40;99.90;;;;;;5091823;28;20117;-73
2023/08/23 05:03:23;;;;;;;13.20;10.30;;;15.40;99.90;;;;;;5108518;27;20039;-71
2023/08/23 05:05:51;;;;;;;18.13;11.15;;;15.50;99.90;;;;;;5088873;28;20073;-72
2023/08/23 05:08:18;;;;;;;14.13;10.15;;;15.40;99.90;;;;;;5090766;28;20048;-73
2023/08/23 05:10:45;;;;;;;13.15;9.25;;;15.40;99.90;;;;;;5107116;28;20040;-71
2023/08/23 05:13:12;;;;;;;24.55;13.60;;;15.40;99.90;;;;;;5089597;28;20063;-72
2023/08/23 05:15:38;;;;;;;22.38;12.23;;;15.40;99.90;;;;;;5088703;28;20047;-72
2023/08/23 05:18:06;;;;;;;21.95;13.20;;;15.40;99.90;;;;;;5105546;28;20048;-71
2023/08/23 05:20:33;;;;;;;20.92;13.30;;;15.40;99.90;;;;;;5107988;27;20051;-72
2023/08/23 05:23:01;;;;;;;27.00;11.55;;;15.40;99.90;;;;;;5089173;28;20059;-72
2023/08/23 05:25:28;;;;;;;26.17;12.95;;;15.50;99.90;;;;;;5093606;28;20051;-72
2023/08/23 05:27:55;;;;;;;17.77;11.82;;;15.50;99.90;;;;;;5111921;27;20051;-72
2023/08/23 05:30:22;;;;;;;20.25;12.50;;;15.50;99.90;;;;;;5087674;28;20092;-72
2023/08/23 05:32:49;;;;;;;24.05;12.60;;;15.50;99.90;;;;;;5089217;27;20048;-72
2023/08/23 05:35:16;;;;;;;23.98;14.32;;;15.50;99.90;;;;;;5087277;28;20046;-72
2023/08/23 05:37:43;;;;;;;22.63;14.00;;;15.50;99.90;;;;;;5092543;28;20101;-72
2023/08/23 05:40:12;;;;;;;25.80;14.52;;;15.50;99.90;;;;;;5103106;27;20051;-71
2023/08/23 05:42:39;;;;;;;24.77;14.40;;;15.50;99.90;;;;;;5090718;28;20048;-72
2023/08/23 05:45:07;;;;;;;26.35;14.02;;;15.50;99.90;;;;;;5090814;28;20449;-72
2023/08/23 05:47:34;;;;;;;22.13;14.25;;;15.40;99.90;;;;;;5103981;28;20047;-72
2023/08/23 05:50:01;;;;;;;22.65;14.82;;;15.40;99.90;;;;;;5103126;27;20039;-73
2023/08/23 05:52:28;;;;;;;25.08;15.23;;;15.40;99.90;;;;;;5090082;28;20055;-72
2023/08/23 05:54:55;;;;;;;24.23;15.35;;;15.50;99.90;;;;;;5092012;28;20388;-72
2023/08/23 05:57:23;;;;;;;21.23;13.88;;;15.80;99.90;;;;;;5090829;28;20065;-74
2023/08/23 05:59:50;;;;;;;21.35;14.00;;;16.10;99.90;;;;;;5108356;27;20046;-74
2023/08/23 06:02:17;;;;;;;21.20;11.70;;;16.40;99.90;;;;;;5111141;27;20133;-74
2023/08/23 06:04:45;;;;;;;19.85;13.90;;;16.50;99.90;;;;;;5090894;28;20043;-74
2023/08/23 06:07:14;;;;;;;22.42;13.02;;;16.70;99.90;;;;;;5091714;28;20071;-70
2023/08/23 06:09:41;;;;;;;19.27;13.10;;;16.70;99.90;;;;;;5088273;28;20055;-72
2023/08/23 06:12:08;;;;;;;16.95;12.95;;;16.90;99.90;;;;;;5088961;28;20048;-72
2023/08/23 06:14:36;;;;;;;20.10;12.90;;;17.00;99.90;;;;;;5109738;28;20055;-72
2023/08/23 06:17:03;;;;;;;17.65;12.60;;;17.00;99.90;;;;;;5092342;28;20059;-72
2023/08/23 06:19:30;;;;;;;16.40;12.48;;;17.10;99.90;;;;;;5118898;27;20051;-73
2023/08/23 06:21:57;;;;;;;19.52;13.20;;;17.10;99.90;;;;;;5090990;28;20043;-73
2023/08/23 06:24:24;;;;;;;19.67;13.25;;;17.20;99.90;;;;;;5110592;28;20055;-72
2023/08/23 06:26:51;;;;;;;19.33;13.00;;;17.20;99.90;;;;;;5096881;28;20434;-72
2023/08/23 06:29:18;;;;;;;17.85;13.07;;;17.40;99.90;;;;;;5101882;28;20074;-72
2023/08/23 06:31:46;;;;;;;17.48;12.98;;;17.50;99.90;;;;;;5100754;27;20020;-72
2023/08/23 06:34:13;;;;;;;16.05;13.10;;;17.80;99.90;;;;;;5129215;28;20028;-73
2023/08/23 06:36:40;;;;;;;18.05;12.20;;;18.30;99.90;;;;;;5087344;28;20108;-73
2023/08/23 06:39:07;;;;;;;14.57;11.23;;;18.80;99.90;;;;;;5092035;28;20052;-72
2023/08/23 06:41:33;;;;;;;13.90;11.35;;;19.40;99.90;;;;;;5101429;27;20047;-73
2023/08/23 06:44:02;;;;;;;15.98;11.43;;;20.00;99.90;;;;;;5092004;28;20056;-72
2023/08/23 06:46:29;;;;;;;17.75;11.63;;;20.50;99.90;;;;;;5092414;28;20407;-73
2023/08/23 06:48:57;;;;;;;14.75;11.70;;;20.90;99.90;;;;;;5093046;28;20476;-73
2023/08/23 06:51:27;;;;;;;16.48;12.27;;;21.30;99.90;;;;;;5092779;28;20043;-72
2023/08/23 06:53:54;;;;;;;17.60;11.23;;;21.60;99.90;;;;;;5112882;27;20043;-73
2023/08/23 06:56:21;;;;;;;12.80;10.70;;;22.10;99.90;;;;;;5120093;28;20054;-73
2023/08/23 06:58:48;;;;;;;15.35;11.65;;;22.30;99.90;;;;;;5107154;28;20488;-73
2023/08/23 07:01:16;;;;;;;15.23;11.02;;;22.80;99.90;;;;;;5089028;28;20051;-73
2023/08/23 07:03:43;;;;;;;15.27;10.25;;;23.30;99.90;;;;;;5085293;28;20047;-73
2023/08/23 07:06:13;;;;;;;13.98;9.73;;;23.60;99.90;;;;;;5095398;28;20051;-73
2023/08/23 07:08:41;;;;;;;14.90;11.43;;;23.90;99.90;;;;;;5106704;28;20740;-72
2023/08/23 07:11:08;;;;;;;16.58;11.40;;;24.20;99.90;;;;;;5102683;28;20055;-72
2023/08/23 07:13:36;;;;;;;11.43;10.23;;;24.50;99.90;;;;;;5091697;28;21060;-73
2023/08/23 07:16:03;;;;;;;12.27;10.02;;;24.90;99.90;;;;;;5119846;28;20051;-73
2023/08/23 07:18:30;;;;;;;10.88;9.68;;;25.20;99.90;;;;;;5108413;28;20052;-73
2023/08/23 07:20:57;;;;;;;11.15;9.43;;;25.40;99.90;;;;;;5090463;28;20136;-73
2023/08/23 07:23:26;;;;;;;11.85;9.45;;;25.50;99.90;;;;;;5081472;28;20039;-73
2023/08/23 07:25:51;;;;;;;11.18;9.70;;;25.90;99.90;;;;;;5089107;28;20043;-73
2023/08/23 07:28:18;;;;;;;10.85;9.20;;;26.10;99.90;;;;;;5089227;28;20088;-73
2023/08/23 07:30:46;;;;;;;11.90;8.65;;;26.10;99.90;;;;;;5089942;28;20039;-73
2023/08/23 07:33:13;;;;;;;12.10;8.88;;;26.50;99.90;;;;;;5079504;28;20052;-73
2023/08/23 07:35:40;;;;;;;14.60;9.25;;;27.00;99.90;;;;;;5091686;28;20510;-73
2023/08/23 07:38:07;;;;;;;9.52;8.18;;;26.80;99.90;;;;;;5092330;28;20467;-73
2023/08/23 07:40:38;;;;;;;10.95;8.73;;;26.30;99.90;;;;;;5105548;28;20479;-73
2023/08/23 07:43:05;;;;;;;10.30;8.60;;;25.70;99.90;;;;;;5109529;28;20047;-72
2023/08/23 07:45:32;;;;;;;9.27;7.68;;;25.50;99.90;;;;;;5099798;28;20047;-72
2023/08/23 07:47:59;;;;;;;11.63;8.82;;;26.10;99.90;;;;;;5108936;28;20134;-73
2023/08/23 07:50:26;;;;;;;11.63;8.32;;;26.10;99.90;;;;;;5091806;28;20036;-73
2023/08/23 07:52:54;;;;;;;9.15;7.10;;;25.90;99.90;;;;;;5090500;28;20054;-73
2023/08/23 07:55:21;;;;;;;8.65;7.18;;;25.80;99.90;;;;;;5091153;28;20093;-71
2023/08/23 07:57:49;;;;;;;8.88;6.97;;;26.20;99.90;;;;;;5110087;28;20040;-71
2023/08/23 08:00:17;;;;;;;7.40;6.63;;;27.20;99.90;;;;;;5105491;28;20069;-73
2023/08/23 08:02:44;;;;;;;9.45;7.22;;;27.70;99.90;;;;;;5089422;28;20049;-73
2023/08/23 08:05:11;;;;;;;10.15;6.95;;;28.30;99.90;;;;;;5091692;27;20043;-73
2023/08/23 08:07:38;;;;;;;7.97;6.35;;;28.90;99.90;;;;;;5111958;27;20051;-72
2023/08/23 08:10:05;;;;;;;8.98;5.97;;;28.90;99.90;;;;;;5113227;28;20088;-73
2023/08/23 08:12:32;;;;;;;10.35;6.38;;;28.70;99.90;;;;;;5112520;28;20507;-72
2023/08/23 08:15:05;;;;;;;9.35;6.20;;;28.60;99.90;;;;;;5092775;28;20051;-73
2023/08/23 08:17:33;;;;;;;10.18;6.15;;;29.20;99.90;;;;;;5101506;27;20048;-72
2023/08/23 08:20:00;;;;;;;9.05;5.60;;;29.10;99.90;;;;;;5105591;27;20047;-72
2023/08/23 08:22:27;;;;;;;8.45;5.80;;;29.50;99.80;;;;;;5089117;28;20066;-72
2023/08/23 08:24:54;;;;;;;8.90;6.60;;;29.50;99.40;;;;;;5113535;28;20487;-73
2023/08/23 08:27:21;;;;;;;9.55;5.47;;;29.30;99.50;;;;;;5100563;27;20048;-72
2023/08/23 08:29:48;;;;;;;9.48;5.78;;;29.40;99.60;;;;;;5100111;27;20495;-72
2023/08/23 08:32:16;;;;;;;11.95;6.10;;;29.20;99.40;;;;;;5094021;28;20050;-72
2023/08/23 08:34:43;;;;;;;7.47;5.70;;;29.30;99.60;;;;;;5098660;27;20055;-72
2023/08/23 08:37:11;;;;;;;8.13;6.03;;;29.30;99.60;;;;;;5091415;28;20051;-71
2023/08/23 08:39:38;;;;;;;12.00;6.78;;;29.20;99.30;;;;;;5095748;28;20122;-72
2023/08/23 08:42:05;;;;;;;8.95;6.35;;;29.20;99.40;;;;;;5102303;27;20055;-74
2023/08/23 08:44:32;;;;;;;9.23;6.53;;;28.70;99.40;;;;;;5095387;28;20050;-73
2023/08/23 08:46:59;;;;;;;7.43;5.93;;;28.50;99.50;;;;;;5105138;27;20056;-72
2023/08/23 08:49:27;;;;;;;7.97;6.40;;;28.30;99.90;;;;;;5110435;28;20044;-72
2023/08/23 08:51:59;;;;;;;9.50;6.03;;;28.70;99.90;;;;;;5111722;28;20487;-72
2023/08/23 08:54:27;;;;;;;7.18;5.68;;;29.30;98.90;;;;;;5094269;28;20062;-72
2023/08/23 08:56:54;;;;;;;7.65;5.18;;;29.30;98.60;;;;;;5111689;28;20414;-72
2023/08/23 08:59:21;;;;;;;7.45;5.68;;;29.40;98.60;;;;;;5093057;28;20047;-72
2023/08/23 09:01:51;;;;;;;7.72;5.55;;;29.60;98.30;;;;;;5112035;28;20051;-72
2023/08/23 09:04:18;;;;;;;6.22;4.65;;;29.80;98.40;;;;;;5093568;28;20093;-72
2023/08/23 09:06:47;;;;;;;8.38;6.15;;;29.20;98.90;;;;;;5108540;28;20048;-71
2023/08/23 09:09:14;;;;;;;8.73;5.75;;;28.70;99.10;;;;;;5112927;27;20058;-73
2023/08/23 09:11:41;;;;;;;8.38;5.78;;;29.00;99.00;;;;;;5111459;28;20051;-72
2023/08/23 09:14:15;;;;;;;7.07;5.90;;;28.90;99.20;;;;;;5092849;28;20048;-72
2023/08/23 09:16:42;;;;;;;8.13;6.18;;;28.60;99.00;;;;;;5091826;28;20047;-72
2023/08/23 09:19:10;;;;;;;9.27;6.45;;;28.10;99.80;;;;;;5110839;28;20403;-72
2023/08/23 09:21:37;;;;;;;8.43;5.78;;;27.50;99.90;;;;;;5110210;28;20685;-72
2023/08/23 09:24:05;;;;;;;8.90;6.22;;;27.20;99.90;;;;;;5084184;28;20051;-73
2023/08/23 09:26:32;;;;;;;9.68;7.55;;;27.20;99.90;;;;;;5085051;28;20448;-73
2023/08/23 09:28:59;;;;;;;11.07;6.88;;;26.90;99.90;;;;;;5107981;28;20039;-73
2023/08/23 09:31:27;;;;;;;10.50;7.43;;;26.80;99.90;;;;;;5094296;28;20040;-72
2023/08/23 09:33:54;;;;;;;9.93;7.78;;;26.70;99.90;;;;;;5092945;28;20079;-72
2023/08/23 09:36:28;;;;;;;13.65;7.57;;;26.40;99.90;;;;;;5110926;27;20047;-73
2023/08/23 09:38:55;;;;;;;9.68;7.15;;;26.80;99.90;;;;;;5093959;28;20135;-72
2023/08/23 09:41:24;;;;;;;9.55;6.22;;;27.90;99.90;;;;;;5094673;28;20039;-73
2023/08/23 09:43:54;;;;;;;10.57;7.22;;;28.60;99.90;;;;;;5110595;28;20385;-73
2023/08/23 09:46:26;;;;;;;9.63;6.05;;;28.40;99.60;;;;;;5112798;28;20062;-73
2023/08/23 09:48:54;;;;;;;9.30;6.22;;;27.80;99.90;;;;;;5094704;28;20080;-73
2023/08/23 09:51:23;;;;;;;10.60;5.97;;;28.00;99.90;;;;;;5079623;28;20079;-73
2023/08/23 09:53:55;;;;;;;10.32;6.53;;;28.20;99.90;;;;;;5096749;27;20049;-72
2023/08/23 09:56:24;;;;;;;10.57;6.60;;;27.70;99.90;;;;;;5094628;28;20056;-72
2023/08/23 09:58:51;;;;;;;;;;;27.30;99.90;;;;;;5106825;27;20131;-72
2023/08/23 10:01:19;;;;;;;9.82;7.15;;;27.30;99.90;;;;;;5105044;28;20051;-73
2023/08/23 10:03:46;;;;;;;12.48;7.57;;;26.90;99.90;;;;;;5090021;28;20055;-73
2023/08/23 10:06:13;;;;;;;10.43;7.13;;;26.90;99.90;;;;;;5091475;28;20828;-73
2023/08/23 10:08:40;;;;;;;10.38;6.82;;;27.20;99.90;;;;;;5088497;28;20047;-74
2023/08/23 10:11:07;;;;;;;11.00;6.13;;;27.90;99.90;;;;;;5092481;28;20051;-73
2023/08/23 10:13:36;;;;;;;6.30;4.75;;;28.70;99.90;;;;;;5091571;28;20044;-73
2023/08/23 10:16:04;;;;;;;9.50;6.63;;;29.40;98.70;;;;;;5091696;28;20165;-72
2023/08/23 10:18:33;;;;;;;9.98;5.85;;;30.20;98.10;;;;;;5098810;27;20105;-72
2023/08/23 10:21:02;;;;;;;7.97;5.72;;;30.80;97.00;;;;;;5092321;28;20046;-72
2023/08/23 10:23:33;;;;;;;8.25;5.70;;;30.70;96.80;;;;;;5061193;28;20055;-72
2023/08/23 10:26:02;;;;;;;10.05;5.15;;;30.20;97.00;;;;;;5070600;28;20055;-72
2023/08/23 10:28:29;;;;;;;11.43;6.55;;;31.00;96.80;;;;;;5107400;28;20556;-72
2023/08/23 10:31:00;;;;;;;7.93;5.60;;;30.40;96.20;;;;;;5101288;27;20403;-73
2023/08/23 10:33:27;;;;;;;6.30;4.65;;;31.00;96.00;;;;;;5110122;28;20040;-73
2023/08/23 10:35:54;;;;;;;8.43;4.45;;;31.70;95.60;;;;;;5087686;28;20506;-71
2023/08/23 10:38:22;;;;;;;11.20;3.75;;;31.50;95.00;;;;;;5085991;28;20066;-72
2023/08/23 10:40:49;;;;;;;8.02;3.72;;;32.20;94.10;;;;;;5087694;28;20062;-72
2023/08/23 10:43:18;;;;;;;5.75;3.47;;;32.40;92.90;;;;;;5092359;28;20112;-72
2023/08/23 10:45:56;;;;;;;8.07;4.43;;;32.40;92.30;;;;;;5088781;28;20051;-73
2023/08/23 10:48:24;;;;;;;7.40;4.50;;;32.30;91.80;;;;;;5091048;28;20086;-73
2023/08/23 10:50:53;;;;;;;7.87;4.10;;;32.40;92.60;;;;;;5102605;28;20123;-72
2023/08/23 10:53:20;;;;;;;6.80;4.68;;;32.50;92.40;;;;;;5090228;28;20131;-72
2023/08/23 10:55:47;;;;;;;7.53;3.78;;;32.60;92.00;;;;;;5084890;28;20051;-73
2023/08/23 10:58:15;;;;;;;6.15;3.35;;;32.90;92.20;;;;;;5089899;28;20491;-74
2023/08/23 11:00:42;;;;;;;7.22;3.00;;;33.40;91.90;;;;;;5102887;28;20510;-72
2023/08/23 11:03:11;;;;;;;5.07;2.42;;;33.70;90.90;;;;;;5106906;28;20039;-72
2023/08/23 11:05:39;;;;;;;5.33;2.50;;;33.40;90.00;;;;;;5108031;28;20043;-72
2023/08/23 11:08:07;;;;;;;4.57;2.40;;;33.70;89.70;;;;;;5089785;28;20052;-73
2023/08/23 11:10:33;;;;;;;4.55;2.10;;;33.40;89.10;;;;;;5104571;28;20308;-72
2023/08/23 11:13:01;;;;;;;4.80;2.10;;;32.50;89.90;;;;;;5082574;28;20571;-72
2023/08/23 11:15:28;;;;;;;6.07;2.35;;;33.10;89.10;;;;;;5088238;28;20044;-72
2023/08/23 11:17:56;;;;;;;5.53;2.65;;;33.10;89.70;;;;;;5088688;28;20072;-72
2023/08/23 11:20:24;;;;;;;3.85;2.42;;;33.50;89.90;;;;;;5089964;28;20081;-72
2023/08/23 11:22:52;;;;;;;6.03;2.55;;;33.80;89.90;;;;;;5090715;28;20403;-72
2023/08/23 11:25:19;;;;;;;4.68;2.22;;;34.10;88.10;;;;;;5080036;28;20047;-72
2023/08/23 11:27:46;;;;;;;7.22;2.70;;;33.80;87.30;;;;;;5090429;28;20055;-72
2023/08/23 11:30:13;;;;;;;3.67;1.90;;;33.60;88.50;;;;;;5089474;28;20476;-72
2023/08/23 11:32:41;;;;;;;4.85;2.20;;;33.50;86.00;;;;;;5091616;28;20040;-71
2023/08/23 11:35:08;;;;;;;5.40;2.35;;;33.00;86.50;;;;;;5104742;28;20050;-71
2023/08/23 11:37:37;;;;;;;7.47;2.08;;;32.30;86.50;;;;;;5091986;28;20056;-72
2023/08/23 11:40:10;;;;;;;3.95;1.85;;;31.50;88.50;;;;;;5091880;28;20047;-72
2023/08/23 11:42:38;;;;;;;5.28;2.20;;;30.80;89.80;;;;;;5111945;28;20044;-72
2023/08/23 11:45:06;;;;;;;8.20;2.10;;;30.40;90.30;;;;;;5113996;27;20080;-72
2023/08/23 11:47:35;;;;;;;4.00;2.15;;;30.00;90.60;;;;;;5085741;28;20052;-72
2023/08/23 11:50:02;;;;;;;;;;;29.40;90.80;;;;;;5095876;28;20058;-72
2023/08/23 11:52:30;;;;;;;5.40;2.45;;;28.80;91.60;;;;;;5110875;28;19919;-72
2023/08/23 11:54:58;;;;;;;4.47;2.50;;;28.20;92.10;;;;;;5095718;28;20113;-73
2023/08/23 11:57:25;;;;;;;6.10;2.53;;;28.30;92.40;;;;;;5087778;28;20046;-72
2023/08/23 11:59:52;;;;;;;7.55;2.80;;;28.00;92.80;;;;;;5091914;28;20578;-72
2023/08/23 12:02:19;;;;;;;5.47;2.88;;;27.90;93.50;;;;;;5114412;28;20093;-72
2023/08/23 12:04:47;;;;;;;6.30;2.92;;;27.60;93.70;;;;;;5101492;27;20044;-73
2023/08/23 12:07:14;;;;;;;7.45;3.08;;;27.30;93.70;;;;;;5111595;27;20495;-73
2023/08/23 12:09:41;;;;;;;6.30;3.08;;;27.00;94.10;;;;;;5112430;28;20403;-72
2023/08/23 12:12:09;;;;;;;5.93;2.67;;;27.00;94.40;;;;;;5092208;28;20054;-73
2023/08/23 12:14:37;;;;;;;5.57;2.30;;;28.10;94.40;;;;;;5102910;27;20050;-72
2023/08/23 12:17:04;;;;;;;4.18;1.20;;;29.00;92.90;;;;;;5112174;27;20059;-72
2023/08/23 12:19:35;;;;;;;3.58;1.50;;;29.70;90.70;;;;;;5111858;28;20051;-72
2023/08/23 12:22:03;;;;;;;5.70;1.95;;;30.50;90.00;;;;;;5113131;28;20488;-72
2023/08/23 12:24:30;;;;;;;4.32;1.20;;;31.50;89.00;;;;;;5093723;28;20071;-72
2023/08/23 12:26:58;;;;;;;6.90;1.73;;;31.90;88.50;;;;;;5095475;28;20076;-72
2023/08/23 12:29:26;;;;;;;3.05;1.10;;;32.50;86.70;;;;;;5094607;28;20075;-72
2023/08/23 12:31:55;;;;;;;2.55;1.10;;;32.60;86.30;;;;;;5087315;28;20040;-72
2023/08/23 12:34:22;;;;;;;3.63;1.08;;;32.50;83.80;;;;;;5094921;28;20054;-72
2023/08/23 12:36:49;;;;;;;3.33;0.90;;;31.30;83.80;;;;;;5092470;28;20120;-72
2023/08/23 12:39:16;;;;;;;3.35;1.00;;;30.70;84.20;;;;;;5113352;28;20051;-72
2023/08/23 12:41:43;;;;;;;2.63;1.20;;;30.10;84.40;;;;;;5105370;27;20039;-72